Time;durP1;ratioP1;P1;durP2;ratioP2;P2;SDS_P1;SDS_P2;PMS_P1;PMS_P2;Temp;Humidity;BMP_temperature;BMP_pressure;BME280_temperature;BME280_humidity;BME280_pressure;Samples;Min_cycle;Max_cycle;Signal;HPM_P1;HPM_P2
2024/02/10 00:01:13;;;;;;;9.70;6.80;;;;;;;-145.69;67.10;52246.34;5133963;27;20193;-81
2024/02/10 00:03:42;;;;;;;11.23;6.97;;;;;;;-145.69;67.35;52270.13;5133810;27;20205;-81
2024/02/10 00:06:09;;;;;;;9.73;6.47;;;;;;;-145.69;67.20;52278.03;5134075;27;20264;-80
2024/02/10 00:08:37;;;;;;;11.93;7.40;;;;;;;-145.69;67.67;52246.34;5133846;27;20208;-80
2024/02/10 00:11:05;;;;;;;11.37;6.27;;;;;;;-145.69;67.38;52276.06;5134026;27;20234;-82
2024/02/10 00:13:33;;;;;;;11.17;6.97;;;;;;;-145.69;67.18;52274.06;5133537;27;20197;-83
2024/02/10 00:16:00;;;;;;;10.60;6.97;;;;;;;-145.69;67.38;52260.22;5134000;27;20280;-80
2024/02/10 00:18:29;;;;;;;11.23;6.93;;;;;;;-145.69;67.65;52270.13;5133784;27;20257;-81
2024/02/10 00:20:55;;;;;;;9.97;6.33;;;;;;;-145.69;67.55;52274.06;5133369;27;20188;-80
2024/02/10 00:23:22;;;;;;;12.93;7.00;;;;;;;-145.69;67.21;52293.88;5133538;27;20272;-81
2024/02/10 00:25:49;;;;;;;11.37;6.30;;;;;;;-145.69;67.11;52264.16;5133700;27;20197;-82
2024/02/10 00:28:17;;;;;;;8.13;5.40;;;;;;;-145.69;67.29;52282.00;5133970;27;20207;-83
2024/02/10 00:30:43;;;;;;;9.73;6.13;;;;;;;-145.69;67.48;52258.22;5133710;27;20203;-82
2024/02/10 00:33:10;;;;;;;8.70;5.47;;;;;;;-145.69;67.44;52276.06;5133355;28;20200;-82
2024/02/10 00:35:36;;;;;;;8.63;5.97;;;;;;;-145.69;67.15;52305.75;5133711;28;20201;-82
2024/02/10 00:38:03;;;;;;;10.77;5.37;;;;;;;-145.69;67.49;52272.09;5133371;28;20292;-83
2024/02/10 00:40:31;;;;;;;6.90;4.83;;;;;;;-145.69;67.17;52260.22;5132379;27;20249;-82
2024/02/10 00:42:57;;;;;;;8.23;5.07;;;;;;;-145.69;66.85;52305.75;5133503;28;20184;-83
2024/02/10 00:45:26;;;;;;;6.83;4.57;;;;;;;-145.69;67.18;52258.22;5133160;27;20218;-82
2024/02/10 00:47:53;;;;;;;7.37;5.03;;;;;;;-145.69;67.45;52260.22;5133257;27;20193;-82
2024/02/10 00:50:20;;;;;;;9.13;5.27;;;;;;;-145.69;67.15;52264.16;5133398;28;20196;-82
2024/02/10 00:52:48;;;;;;;9.33;6.33;;;;;;;-145.69;67.42;52282.00;5134702;27;20583;-82
2024/02/10 00:55:14;;;;;;;9.23;5.90;;;;;;;-145.69;67.67;52285.97;5137491;27;20196;-82
2024/02/10 00:57:42;;;;;;;8.70;5.63;;;;;;;-145.69;67.13;52274.06;5137587;27;20578;-82
2024/02/10 01:00:16;;;;;;;9.83;6.33;;;;;;;-145.69;67.50;52282.00;5137397;27;20197;-82
2024/02/10 01:02:45;;;;;;;8.33;5.03;;;;;;;-145.69;67.08;52272.09;5137561;27;20200;-82
2024/02/10 01:05:11;;;;;;;7.87;5.10;;;;;;;-145.69;67.00;52264.16;5136857;27;20203;-82
2024/02/10 01:07:39;;;;;;;6.57;4.47;;;;;;;-145.69;67.47;52309.72;5137335;27;20211;-83
2024/02/10 01:10:07;;;;;;;6.77;4.30;;;;;;;-145.69;66.92;52289.91;5137067;27;20192;-82
2024/02/10 01:12:34;;;;;;;8.13;4.57;;;;;;;-145.69;66.86;52246.34;5136902;27;20202;-83
2024/02/10 01:15:00;;;;;;;7.40;5.03;;;;;;;-145.69;67.23;52250.31;5137595;27;20228;-82
2024/02/10 01:17:27;;;;;;;9.33;5.40;;;;;;;-145.69;67.01;52278.03;5136371;27;20220;-82
2024/02/10 01:19:55;;;;;;;11.13;6.20;;;;;;;-145.69;67.01;52276.06;5128409;27;20197;-82
2024/02/10 01:22:26;;;;;;;12.07;6.43;;;;;;;-145.69;66.88;52262.19;5136710;27;20200;-82
2024/02/10 01:24:54;;;;;;;12.60;5.73;;;;;;;-145.69;67.12;52285.97;5137129;27;20292;-81
2024/02/10 01:27:20;;;;;;;9.80;5.97;;;;;;;-145.69;67.00;52278.03;5136793;27;20200;-82
2024/02/10 01:29:50;;;;;;;10.67;6.23;;;;;;;-145.69;67.48;52305.75;5129696;27;20200;-82
2024/02/10 01:32:19;;;;;;;9.87;5.70;;;;;;;-145.69;67.45;52289.91;5156040;27;20287;-81
2024/02/10 01:34:46;;;;;;;8.57;5.60;;;;;;;-145.69;67.32;52293.88;5157554;27;20206;-82
2024/02/10 01:37:17;;;;;;;10.00;5.43;;;;;;;-145.69;67.20;52272.09;5157590;27;20223;-82
2024/02/10 01:39:44;;;;;;;8.93;5.57;;;;;;;-145.69;66.88;52313.69;5157668;27;20531;-82
2024/02/10 01:42:10;;;;;;;9.97;5.43;;;;;;;-145.69;67.20;52268.13;5157532;27;20234;-82
2024/02/10 01:44:37;;;;;;;13.50;5.97;;;;;;;-145.69;67.13;52266.16;5157453;27;20196;-82
2024/02/10 01:47:04;;;;;;;10.37;5.17;;;;;;;-145.69;67.67;52250.31;5157258;27;20195;-81
2024/02/10 01:49:30;;;;;;;10.27;5.60;;;;;;;-145.69;67.84;52278.03;5147327;27;20671;-81
2024/02/10 01:51:57;;;;;;;9.83;5.40;;;;;;;-145.69;67.70;52248.34;5136279;27;20311;-82
2024/02/10 01:54:25;;;;;;;11.97;6.03;;;;;;;-145.69;67.57;52289.91;5136545;27;20212;-82
2024/02/10 01:56:53;;;;;;;10.00;5.00;;;;;;;-145.69;67.35;52291.91;5136245;27;20193;-82
2024/02/10 01:59:21;;;;;;;10.30;4.93;;;;;;;-145.69;67.90;52278.03;5136332;27;20197;-82
2024/02/10 02:01:48;;;;;;;10.17;5.63;;;;;;;-145.69;67.87;52268.13;5136483;27;20201;-80
2024/02/10 02:04:15;;;;;;;10.40;5.07;;;;;;;-145.69;67.70;52293.88;5135992;27;20204;-81
2024/02/10 02:06:43;;;;;;;8.30;4.63;;;;;;;-145.69;67.37;52264.16;5136059;27;20196;-81
2024/02/10 02:09:10;;;;;;;7.83;4.80;;;;;;;-145.69;67.85;52282.00;5135850;27;20202;-81
2024/02/10 02:11:47;;;;;;;9.33;5.30;;;;;;;-145.69;67.23;52274.06;5136186;27;20193;-81
2024/02/10 02:14:15;;;;;;;7.40;4.30;;;;;;;-145.69;67.54;52297.84;5135858;27;20204;-82
2024/02/10 02:16:44;;;;;;;8.23;4.37;;;;;;;-145.69;66.91;52270.13;5135942;27;20205;-82
2024/02/10 02:19:11;;;;;;;6.27;3.63;;;;;;;-145.69;66.55;52303.78;5135740;27;20675;-82
2024/02/10 02:21:39;;;;;;;11.40;5.37;;;;;;;-145.69;67.10;52307.75;5135731;27;20216;-81
2024/02/10 02:24:07;;;;;;;11.03;5.23;;;;;;;-145.69;67.30;52280.00;5135755;27;20635;-82
2024/02/10 02:26:33;;;;;;;11.47;5.53;;;;;;;-145.69;67.06;52297.84;5135757;27;20257;-82
2024/02/10 02:29:00;;;;;;;11.03;5.77;;;;;;;-145.69;67.99;52280.00;5136112;27;20316;-81
2024/02/10 02:31:28;;;;;;;8.90;5.00;;;;;;;-145.69;67.55;52289.91;5135454;27;20612;-81
2024/02/10 02:34:03;;;;;;;10.47;4.50;;;;;;;-145.69;68.00;52285.97;5135802;27;20214;-81
2024/02/10 02:36:30;;;;;;;9.83;4.33;;;;;;;-145.69;68.23;52307.75;5135680;27;20276;-81
2024/02/10 02:38:58;;;;;;;6.87;3.70;;;;;;;-145.69;68.00;52299.81;5135268;27;20217;-81
2024/02/10 02:41:26;;;;;;;8.33;4.13;;;;;;;-145.69;68.27;52325.56;5135348;27;20193;-81
2024/02/10 02:43:53;;;;;;;9.43;4.30;;;;;;;-145.69;68.29;52321.59;5135542;27;20204;-80
2024/02/10 02:46:19;;;;;;;6.40;3.93;;;;;;;-145.69;68.26;52307.75;5135370;27;20253;-80
2024/02/10 02:48:45;;;;;;;7.20;3.50;;;;;;;-145.69;68.54;52333.47;5134391;27;20197;-81
2024/02/10 02:51:14;;;;;;;7.13;3.80;;;;;;;-145.69;68.34;52327.53;5134549;27;20675;-81
2024/02/10 02:53:40;;;;;;;8.10;4.70;;;;;;;-145.69;68.90;52319.63;5134934;27;20204;-81
2024/02/10 02:56:14;;;;;;;6.43;3.90;;;;;;;-145.69;69.14;52313.69;5114424;28;20212;-81
2024/02/10 02:58:42;;;;;;;8.97;4.00;;;;;;;-145.69;68.69;52361.22;5114602;28;20225;-81
2024/02/10 03:01:11;;;;;;;6.37;3.50;;;;;;;-145.69;68.89;52295.84;5114759;28;20204;-82
2024/02/10 03:03:39;;;;;;;4.20;2.70;;;;;;;-145.69;69.02;52285.97;5114303;28;20213;-82
2024/02/10 03:06:06;;;;;;;6.17;2.60;;;;;;;-145.69;69.36;52297.84;5114378;28;20197;-81
2024/02/10 03:08:35;;;;;;;6.30;3.17;;;;;;;-145.69;69.62;52285.97;5114550;28;20202;-81
2024/02/10 03:11:04;;;;;;;6.53;3.70;;;;;;;-145.69;70.23;52323.59;5120374;27;20197;-82
2024/02/10 03:13:31;;;;;;;8.27;3.83;;;;;;;-145.69;69.09;52301.81;5134764;27;20222;-81
2024/02/10 03:16:00;;;;;;;8.00;4.23;;;;;;;-145.69;69.53;52337.44;5133343;27;20559;-81
2024/02/10 03:18:27;;;;;;;9.53;4.77;;;;;;;-145.69;69.24;52335.47;5134811;27;20224;-81
2024/02/10 03:20:54;;;;;;;9.77;5.60;;;;;;;-145.69;69.36;52321.59;5134750;27;20204;-81
2024/02/10 03:23:21;;;;;;;11.87;5.23;;;;;;;-145.69;69.62;52325.56;5133891;27;20643;-81
2024/02/10 03:25:47;;;;;;;8.37;4.53;;;;;;;-145.69;69.20;52311.69;5132620;27;20208;-80
2024/02/10 03:28:15;;;;;;;8.70;4.73;;;;;;;-145.69;69.51;52313.69;5134756;27;20223;-81
2024/02/10 03:30:42;;;;;;;10.20;4.73;;;;;;;-145.69;69.00;52283.97;5134403;27;20227;-81
2024/02/10 03:33:09;;;;;;;12.37;4.90;;;;;;;-145.69;68.86;52303.78;5134345;27;20639;-81
2024/02/10 03:35:36;;;;;;;8.63;4.47;;;;;;;-145.69;68.76;52303.78;5134539;27;20199;-81
2024/02/10 03:38:02;;;;;;;12.00;5.20;;;;;;;-145.69;68.58;52309.72;5134298;27;20228;-82
2024/02/10 03:40:29;;;;;;;9.30;4.97;;;;;;;-145.69;68.62;52335.47;5134004;27;20206;-82
2024/02/10 03:42:55;;;;;;;8.83;4.80;;;;;;;-145.69;69.01;52315.66;5134011;27;20199;-82
2024/02/10 03:45:22;;;;;;;9.27;4.93;;;;;;;-145.69;68.86;52315.66;5134226;27;20201;-81
2024/02/10 03:47:50;;;;;;;12.00;5.40;;;;;;;-145.69;69.10;52301.81;5134277;27;20197;-81
2024/02/10 03:50:18;;;;;;;9.03;5.23;;;;;;;-145.69;69.19;52297.84;5134143;27;20558;-81
2024/02/10 03:52:45;;;;;;;11.17;5.33;;;;;;;-145.69;68.93;52303.78;5134078;27;20232;-81
2024/02/10 03:55:14;;;;;;;9.40;5.20;;;;;;;-145.69;68.94;52289.91;5133658;27;20281;-81
2024/02/10 03:57:41;;;;;;;9.57;4.43;;;;;;;-145.69;69.39;52309.72;5133862;27;20221;-81
2024/02/10 04:00:10;;;;;;;9.73;5.03;;;;;;;-145.69;69.44;52301.81;5134022;27;20196;-81
2024/02/10 04:02:37;;;;;;;8.97;5.20;;;;;;;-145.69;69.57;52305.75;5133429;27;20194;-82
2024/02/10 04:05:04;;;;;;;10.43;5.47;;;;;;;-145.69;69.43;52282.00;5133957;27;20437;-81
2024/02/10 04:07:35;;;;;;;8.47;4.63;;;;;;;-145.69;68.05;52270.13;5133592;27;20207;-82
2024/02/10 04:10:01;;;;;;;6.70;3.97;;;;;;;-145.69;68.20;52327.53;5133849;27;20258;-81
2024/02/10 04:12:29;;;;;;;6.93;4.60;;;;;;;-145.69;67.80;52282.00;5133852;27;20200;-81
2024/02/10 04:14:58;;;;;;;8.17;4.10;;;;;;;-145.69;67.70;52333.47;5133521;27;20517;-81
2024/02/10 04:17:25;;;;;;;8.33;4.30;;;;;;;-145.69;67.67;52287.94;5133647;27;20226;-81
2024/02/10 04:19:53;;;;;;;9.57;4.70;;;;;;;-145.69;68.16;52317.66;5133479;27;20192;-81
2024/02/10 04:22:22;;;;;;;10.10;4.80;;;;;;;-145.69;67.76;52331.50;5133732;27;20192;-81
2024/02/10 04:24:53;;;;;;;6.73;3.70;;;;;;;-145.69;67.58;52250.31;5133592;27;20339;-81
2024/02/10 04:27:19;;;;;;;7.37;3.60;;;;;;;-145.69;68.01;52270.13;5133410;27;20673;-79
2024/02/10 04:29:46;;;;;;;5.77;3.70;;;;;;;-145.69;68.02;52301.81;5133317;27;20205;-80
2024/02/10 04:32:12;;;;;;;10.03;3.87;;;;;;;-145.69;67.70;52285.97;5133594;27;20203;-80
2024/02/10 04:34:39;;;;;;;10.40;4.30;;;;;;;-145.69;67.69;52282.00;5133564;28;20204;-80
2024/02/10 04:37:05;;;;;;;8.80;3.40;;;;;;;-145.69;68.31;52305.75;5133049;27;20205;-80
2024/02/10 04:39:34;;;;;;;5.93;3.53;;;;;;;-145.69;68.79;52313.69;5133454;27;20228;-82
2024/02/10 04:42:05;;;;;;;4.60;2.90;;;;;;;-145.69;68.67;52283.97;5133154;27;20200;-83
2024/02/10 04:44:32;;;;;;;4.50;3.17;;;;;;;-145.69;68.35;52297.84;5133573;27;20217;-81
2024/02/10 04:46:58;;;;;;;7.03;3.43;;;;;;;-145.69;68.32;52303.78;5133668;27;20615;-82
2024/02/10 04:49:26;;;;;;;6.67;3.17;;;;;;;-145.69;68.81;52301.81;5132899;27;20200;-82
2024/02/10 04:51:52;;;;;;;8.80;4.50;;;;;;;-145.69;68.92;52278.03;5133308;27;20252;-81
2024/02/10 04:54:18;;;;;;;9.37;4.40;;;;;;;-145.69;68.65;52307.75;5133250;27;20200;-81
2024/02/10 04:56:45;;;;;;;9.63;4.33;;;;;;;-145.69;68.82;52333.47;5132996;27;20205;-81
2024/02/10 04:59:17;;;;;;;9.57;5.20;;;;;;;-145.69;68.92;52274.06;5132971;28;20228;-82
2024/02/10 05:01:44;;;;;;;10.83;5.13;;;;;;;-145.69;68.25;52285.97;5133613;27;20643;-82
2024/02/10 05:04:14;;;;;;;12.13;5.03;;;;;;;-145.69;68.47;52293.88;5133177;27;20196;-82
2024/02/10 05:06:42;;;;;;;8.90;5.43;;;;;;;-145.69;68.97;52280.00;5133222;27;20250;-81
2024/02/10 05:09:09;;;;;;;9.27;4.63;;;;;;;-145.69;68.89;52305.75;5133172;27;20242;-81
2024/02/10 05:11:35;;;;;;;8.13;4.87;;;;;;;-145.69;68.71;52309.72;5133384;28;20240;-82
2024/02/10 05:14:04;;;;;;;8.07;4.47;;;;;;;-145.69;68.99;52301.81;5131994;28;20652;-81
2024/02/10 05:16:32;;;;;;;8.63;4.70;;;;;;;-145.69;68.97;52272.09;5132208;27;20655;-81
2024/02/10 05:19:00;;;;;;;7.33;4.37;;;;;;;-145.69;69.14;52289.91;5133241;27;20243;-82
2024/02/10 05:21:28;;;;;;;5.30;3.53;;;;;;;-145.69;68.76;52313.69;5132835;27;20189;-81
2024/02/10 05:23:54;;;;;;;6.43;3.73;;;;;;;-145.69;69.14;52333.47;5132664;27;20678;-82
2024/02/10 05:26:21;;;;;;;8.13;4.33;;;;;;;-145.69;68.78;52323.59;5133149;27;20201;-81
2024/02/10 05:28:47;;;;;;;13.33;4.20;;;;;;;-145.69;68.52;52285.97;5113220;27;20205;-82
2024/02/10 05:31:14;;;;;;;7.27;3.17;;;;;;;-145.69;68.94;52301.81;5112494;28;20205;-82
2024/02/10 05:33:43;;;;;;;8.87;3.63;;;;;;;-145.69;68.54;52285.97;5112459;28;20194;-83
2024/02/10 05:36:10;;;;;;;6.33;2.90;;;;;;;-145.69;68.37;52297.84;5112049;28;20201;-82
2024/02/10 05:38:38;;;;;;;5.03;3.30;;;;;;;-145.69;68.07;52260.22;5113692;28;20221;-82
2024/02/10 05:41:05;;;;;;;8.93;3.40;;;;;;;-145.69;69.19;52321.59;5116474;28;20204;-81
2024/02/10 05:43:32;;;;;;;5.23;3.57;;;;;;;-145.69;69.03;52289.91;5123484;27;20195;-82
2024/02/10 05:46:01;;;;;;;5.43;3.10;;;;;;;-145.69;68.89;52305.75;5136663;27;20204;-82
2024/02/10 05:48:31;;;;;;;4.87;2.87;;;;;;;-145.69;69.14;52291.91;5136207;27;20200;-82
2024/02/10 05:50:59;;;;;;;6.10;3.43;;;;;;;-145.69;68.89;52331.50;5136515;27;20200;-81
2024/02/10 05:53:26;;;;;;;5.80;2.57;;;;;;;-145.69;68.53;52305.75;5131966;27;20282;-82
2024/02/10 05:55:52;;;;;;;6.97;2.93;;;;;;;-145.69;68.96;52282.00;5135957;27;20189;-82
2024/02/10 05:58:23;;;;;;;4.03;2.70;;;;;;;-145.69;68.71;52272.09;5136075;27;20224;-82
2024/02/10 06:00:50;;;;;;;6.83;3.00;;;;;;;-145.69;68.43;52357.25;5136503;27;20228;-81
2024/02/10 06:03:16;;;;;;;6.47;2.80;;;;;;;-145.69;68.47;52305.75;5136121;27;20651;-81
2024/02/10 06:05:43;;;;;;;5.83;2.80;;;;;;;-145.69;68.39;52329.53;5136323;27;20571;-82
2024/02/10 06:08:12;;;;;;;6.10;2.73;;;;;;;-145.69;68.05;52285.97;5136116;27;20559;-81
2024/02/10 06:10:38;;;;;;;4.17;2.70;;;;;;;-145.69;67.65;52272.09;5136181;27;20197;-82
2024/02/10 06:13:05;;;;;;;3.97;2.40;;;;;;;-145.69;68.27;52301.81;5135816;27;20193;-82
2024/02/10 06:15:32;;;;;;;4.63;2.80;;;;;;;-145.69;68.93;52313.69;5135864;27;20204;-81
2024/02/10 06:18:03;;;;;;;6.77;2.63;;;;;;;-145.69;69.54;52317.66;5135548;27;20193;-81
2024/02/10 06:20:30;;;;;;;4.33;2.60;;;;;;;-145.69;69.41;52282.00;5135982;27;20577;-82
2024/02/10 06:22:58;;;;;;;3.27;2.00;;;;;;;-145.69;69.28;52321.59;5135853;27;20551;-82
2024/02/10 06:25:29;;;;;;;4.47;2.17;;;;;;;-145.69;69.26;52305.75;5135848;27;20253;-82
2024/02/10 06:27:59;;;;;;;3.90;1.83;;;;;;;-145.69;68.94;52323.59;5135821;27;20257;-81
2024/02/10 06:30:28;;;;;;;2.47;1.40;;;;;;;-145.69;69.45;52321.59;5135897;27;20211;-82
2024/02/10 06:32:55;;;;;;;3.17;1.90;;;;;;;-145.69;68.88;52309.72;5136060;27;20645;-83
2024/02/10 06:35:22;;;;;;;1.77;1.40;;;;;;;-145.69;68.87;52337.44;5135265;27;20196;-83
2024/02/10 06:37:49;;;;;;;2.07;1.23;;;;;;;-145.69;68.81;52325.56;5135612;27;20291;-83
2024/02/10 06:40:17;;;;;;;1.40;1.30;;;;;;;-145.69;69.26;52274.06;5135515;27;20256;-82
2024/02/10 06:42:48;;;;;;;3.03;1.40;;;;;;;-145.69;69.44;52285.97;5135210;27;20682;-86
2024/02/10 06:45:16;;;;;;;4.63;2.10;;;;;;;-145.69;69.48;52345.38;5115070;28;20205;-82
2024/02/10 06:47:43;;;;;;;7.83;2.20;;;;;;;-145.69;69.91;52301.81;5126186;27;20196;-82
2024/02/10 06:50:11;;;;;;;8.00;2.20;;;;;;;-145.69;69.90;52309.72;5133945;27;20209;-82
2024/02/10 06:52:38;;;;;;;4.97;2.10;;;;;;;-145.69;70.34;52305.75;5134798;27;20227;-82
2024/02/10 06:55:07;;;;;;;3.57;2.10;;;;;;;-145.69;70.23;52299.81;5135321;27;20193;-82
2024/02/10 06:57:34;;;;;;;3.97;2.00;;;;;;;-145.69;69.54;52289.91;5135161;27;20203;-82
2024/02/10 07:00:10;;;;;;;4.23;2.43;;;;;;;-145.69;70.46;52299.81;5134603;27;20229;-82
2024/02/10 07:02:39;;;;;;;2.90;1.93;;;;;;;-145.69;70.16;52305.75;5135023;27;20651;-82
2024/02/10 07:05:06;;;;;;;3.90;1.90;;;;;;;-145.69;70.30;52317.66;5135137;27;20201;-82
2024/02/10 07:07:32;;;;;;;2.90;2.03;;;;;;;-145.69;70.63;52305.75;5135140;27;20208;-82
2024/02/10 07:09:59;;;;;;;4.13;2.10;;;;;;;-145.69;69.46;52325.56;5134923;27;20545;-82
2024/02/10 07:12:26;;;;;;;2.07;1.47;;;;;;;-145.69;69.94;52311.69;5134517;27;20683;-82
2024/02/10 07:14:54;;;;;;;5.13;1.80;;;;;;;-145.69;69.59;52329.53;5134627;27;20189;-81
2024/02/10 07:17:22;;;;;;;2.57;1.40;;;;;;;-145.69;70.06;52317.66;5134485;27;20193;-82
2024/02/10 07:19:49;;;;;;;3.40;1.40;;;;;;;-145.69;69.91;52317.66;5134014;27;20225;-81
2024/02/10 07:22:16;;;;;;;5.77;2.00;;;;;;;-145.69;69.62;52321.59;5134942;27;20655;-81
2024/02/10 07:24:46;;;;;;;3.80;1.87;;;;;;;-145.69;69.51;52285.97;5134497;27;20193;-81
2024/02/10 07:27:17;;;;;;;2.40;1.70;;;;;;;-145.69;69.14;52301.81;5134887;27;20201;-81
2024/02/10 07:29:45;;;;;;;3.30;1.90;;;;;;;-145.69;69.87;52305.75;5134592;27;20201;-82
2024/02/10 07:32:12;;;;;;;3.10;2.17;;;;;;;-145.69;70.18;52323.59;5134910;27;20208;-81
2024/02/10 07:34:40;;;;;;;4.13;1.90;;;;;;;-145.69;69.77;52303.78;5131476;27;20195;-82
2024/02/10 07:37:07;;;;;;;2.47;1.50;;;;;;;-145.69;69.48;52289.91;5114053;28;20197;-82
2024/02/10 07:39:33;;;;;;;1.67;1.27;;;;;;;-145.69;69.00;52301.81;5114027;28;20229;-82
2024/02/10 07:42:01;;;;;;;2.80;1.70;;;;;;;-145.69;68.82;52278.03;5113954;28;20197;-82
2024/02/10 07:44:28;;;;;;;1.97;1.50;;;;;;;-145.69;69.21;52291.91;5128050;27;20197;-82
2024/02/10 07:46:55;;;;;;;3.37;1.40;;;;;;;-145.69;68.85;52297.84;5134005;27;20193;-82
2024/02/10 07:49:22;;;;;;;1.97;1.50;;;;;;;-145.69;68.76;52303.78;5133811;27;20184;-82
2024/02/10 07:51:50;;;;;;;2.97;1.80;;;;;;;-145.69;67.77;52278.03;5133775;27;20248;-82
2024/02/10 07:54:20;;;;;;;1.57;1.40;;;;;;;-145.69;67.53;52287.94;5134342;27;20196;-82
2024/02/10 07:56:47;;;;;;;2.73;1.60;;;;;;;-145.69;66.11;52301.81;5134356;27;20201;-82
2024/02/10 07:59:14;;;;;;;2.70;1.27;;;;;;;-145.69;67.10;52258.22;5133836;27;20682;-82
2024/02/10 08:01:40;;;;;;;3.00;1.60;;;;;;;-145.69;66.69;52266.16;5133522;27;20200;-82
2024/02/10 08:04:09;;;;;;;2.57;1.67;;;;;;;-145.69;66.42;52293.88;5133992;27;20193;-82
2024/02/10 08:06:37;;;;;;;2.60;1.70;;;;;;;-145.69;66.22;52278.03;5133607;27;20200;-82
2024/02/10 08:09:07;;;;;;;1.67;1.20;;;;;;;-145.69;66.07;52289.91;5133729;27;20200;-82
2024/02/10 08:11:34;;;;;;;4.30;1.60;;;;;;;-145.69;66.56;52297.84;5134058;27;20201;-81
2024/02/10 08:14:01;;;;;;;2.90;1.40;;;;;;;-145.69;66.47;52287.94;5133207;27;20224;-82
2024/02/10 08:16:27;;;;;;;2.43;1.13;;;;;;;-145.69;66.75;52301.81;5133527;27;20283;-82
2024/02/10 08:18:54;;;;;;;3.03;1.40;;;;;;;-145.69;66.38;52305.75;5133564;27;20254;-82
2024/02/10 08:21:22;;;;;;;2.33;1.57;;;;;;;-145.69;66.18;52276.06;5133992;27;20193;-82
2024/02/10 08:23:52;;;;;;;2.80;1.23;;;;;;;-145.69;66.74;52278.03;5133674;27;20200;-82
2024/02/10 08:26:20;;;;;;;1.70;0.93;;;;;;;-145.69;66.51;52297.84;5134138;27;20411;-82
2024/02/10 08:28:47;;;;;;;1.57;1.30;;;;;;;-145.69;66.11;52307.75;5133834;27;20197;-82
2024/02/10 08:31:15;;;;;;;6.40;1.50;;;;;;;-145.69;66.17;52260.22;5133806;27;20197;-82
2024/02/10 08:33:44;;;;;;;2.87;1.30;;;;;;;-145.69;66.37;52291.91;5133525;28;20200;-82
2024/02/10 08:36:15;;;;;;;2.17;1.40;;;;;;;-145.69;66.48;52301.81;5133768;28;20201;-82
2024/02/10 08:38:42;;;;;;;1.67;1.30;;;;;;;-145.69;66.27;52305.75;5133507;27;20207;-83
2024/02/10 08:41:08;;;;;;;1.88;1.45;;;;;;;-145.69;65.40;52291.91;5133098;28;20318;-82
2024/02/10 08:43:36;;;;;;;1.20;1.00;;;;;;;-145.69;66.14;52238.44;5133347;27;20205;-81
2024/02/10 08:46:07;;;;;;;2.27;1.40;;;;;;;-145.69;65.42;52258.22;5132403;28;20671;-83
2024/02/10 08:48:33;;;;;;;2.47;1.30;;;;;;;-145.69;65.89;52285.97;5133430;27;20192;-83
2024/02/10 08:51:00;;;;;;;1.37;1.10;;;;;;;-145.69;65.52;52258.22;5133655;28;20265;-82
2024/02/10 08:53:29;;;;;;;4.22;1.50;;;;;;;-145.69;64.48;52285.97;5132802;28;20680;-82
2024/02/10 08:55:55;;;;;;;1.90;1.37;;;;;;;-145.69;64.94;52266.16;5133026;28;20203;-82
2024/02/10 08:58:25;;;;;;;2.45;1.42;;;;;;;-145.69;65.13;52248.34;5133056;27;20193;-81
2024/02/10 09:00:54;;;;;;;1.63;1.20;;;;;;;-145.69;65.04;52254.28;5133870;27;20224;-82
2024/02/10 09:03:21;;;;;;;2.83;1.50;;;;;;;-145.69;64.56;52282.00;5136378;27;20214;-82
2024/02/10 09:05:47;;;;;;;2.33;1.27;;;;;;;-145.69;64.64;52258.22;5134346;27;20264;-83
2024/02/10 09:08:16;;;;;;;2.47;1.63;;;;;;;-145.69;64.11;52274.06;5133283;28;20220;-83
2024/02/10 09:10:43;;;;;;;3.95;1.90;;;;;;;-145.69;63.62;52270.13;5132929;28;20261;-83
2024/02/10 09:13:12;;;;;;;3.63;1.90;;;;;;;-145.69;63.91;52274.06;5133596;27;20192;-82
2024/02/10 09:15:39;;;;;;;3.77;1.73;;;;;;;-145.69;64.26;52270.13;5137552;27;20196;-83
2024/02/10 09:18:07;;;;;;;3.30;1.95;;;;;;;-145.69;64.53;52256.25;5136920;27;20257;-83
2024/02/10 09:20:34;;;;;;;5.33;2.10;;;;;;;-145.69;64.76;52266.16;5136909;27;20219;-82
2024/02/10 09:23:03;;;;;;;2.20;1.60;;;;;;;-145.69;64.29;52242.38;5137228;27;20201;-81
2024/02/10 09:25:30;;;;;;;4.78;2.63;;;;;;;-145.69;63.51;52258.22;5136827;27;20679;-82
2024/02/10 09:27:59;;;;;;;4.85;2.47;;;;;;;-145.69;63.24;52274.06;5136784;27;20201;-81
2024/02/10 09:30:28;;;;;;;3.97;2.95;;;;;;;-145.69;63.48;52266.16;5137277;27;20253;-82
2024/02/10 09:32:54;;;;;;;3.20;1.98;;;;;;;-145.69;63.89;52252.28;5136826;27;20188;-82
2024/02/10 09:35:25;;;;;;;3.55;2.40;;;;;;;-145.69;63.21;52252.28;5136698;27;20212;-83
2024/02/10 09:37:52;;;;;;;5.53;2.90;;;;;;;-145.69;63.64;52278.03;5135777;27;20197;-83
2024/02/10 09:40:22;;;;;;;5.00;3.05;;;;;;;-145.69;63.44;52291.91;5136712;27;20630;-81
2024/02/10 09:42:53;;;;;;;4.70;3.00;;;;;;;-145.69;64.37;52309.72;5135460;27;20924;-84
2024/02/10 09:45:23;;;;;;;6.43;2.80;;;;;;;-145.69;63.76;52256.25;5136735;27;20201;-83
2024/02/10 09:47:51;;;;;;;4.13;2.53;;;;;;;-145.69;63.75;52262.19;5136622;27;20710;-83
2024/02/10 09:50:18;;;;;;;4.30;2.45;;;;;;;-145.69;62.51;52274.06;5136856;27;20197;-84
2024/02/10 09:52:47;;;;;;;4.95;2.50;;;;;;;-145.69;62.17;52270.13;5136117;27;20233;-84
2024/02/10 09:55:16;;;;;;;4.53;2.10;;;;;;;-145.69;62.38;52272.09;5136528;27;20193;-83
2024/02/10 09:57:46;;;;;;;6.47;1.92;;;;;;;-145.69;61.67;52256.25;5136628;27;20201;-82
2024/02/10 10:00:16;;;;;;;3.42;1.98;;;;;;;-145.69;61.18;52264.16;5136413;27;20228;-82
2024/02/10 10:02:50;;;;;;;3.50;2.15;;;;;;;-145.69;60.58;52238.44;5135987;27;20659;-82
2024/02/10 10:05:21;;;;;;;2.97;2.00;;;;;;;-145.69;60.30;52236.44;5136237;27;20195;-83
2024/02/10 10:07:52;;;;;;;3.60;2.10;;;;;;;-145.69;60.33;52246.34;5136200;27;20192;-83
2024/02/10 10:10:19;;;;;;;4.15;1.90;;;;;;;-145.69;59.97;52228.53;5136348;27;20208;-83
2024/02/10 10:12:45;;;;;;;4.05;2.20;;;;;;;-145.69;59.76;52204.75;5135700;27;20189;-83
2024/02/10 10:15:12;;;;;;;5.07;2.47;;;;;;;-145.69;59.32;52248.34;5135908;27;20205;-83
2024/02/10 10:17:38;;;;;;;4.38;2.50;;;;;;;-145.69;59.82;52210.72;5136171;27;20287;-83
2024/02/10 10:20:06;;;;;;;5.13;2.20;;;;;;;-145.69;59.57;52220.59;5135917;27;20220;-84
2024/02/10 10:22:34;;;;;;;4.28;2.00;;;;;;;-145.69;59.70;52218.63;5135861;27;20213;-84
2024/02/10 10:25:03;;;;;;;2.38;1.88;;;;;;;-145.69;59.04;52238.44;5135905;27;20261;-84
2024/02/10 10:27:30;;;;;;;3.08;2.00;;;;;;;-145.69;59.09;52238.44;5135852;27;20196;-81
2024/02/10 10:29:57;;;;;;;3.10;2.15;;;;;;;-145.69;59.16;52230.50;5135581;27;20197;-82
2024/02/10 10:32:27;;;;;;;6.65;2.70;;;;;;;-145.69;58.58;52206.75;5135921;27;20536;-82
2024/02/10 10:34:55;;;;;;;6.03;3.00;;;;;;;-145.69;57.87;52222.59;5135930;27;20250;-83
2024/02/10 10:37:23;;;;;;;11.38;6.80;;;;;;;-145.69;58.44;52228.53;5135572;27;20690;-81
2024/02/10 10:39:51;;;;;;;10.10;6.45;;;;;;;-145.69;58.19;52200.81;5135495;27;20367;-82
2024/02/10 10:42:21;;;;;;;10.00;5.47;;;;;;;-145.69;57.55;52250.31;5135413;27;20193;-82
2024/02/10 10:44:50;;;;;;;7.70;4.70;;;;;;;-145.69;58.51;52198.81;5135360;27;20708;-82
2024/02/10 10:47:22;;;;;;;6.15;4.10;;;;;;;-145.69;58.58;52234.47;5135308;27;20193;-81
2024/02/10 10:49:49;;;;;;;5.93;3.05;;;;;;;-145.69;58.67;52240.41;5135697;27;20232;-82
2024/02/10 10:52:20;;;;;;;11.82;5.70;;;;;;;-145.69;58.50;52222.59;5135083;27;20228;-81
2024/02/10 10:54:48;;;;;;;7.05;4.05;;;;;;;-145.69;58.36;52222.59;5135811;27;20196;-82
2024/02/10 10:57:21;;;;;;;8.15;4.25;;;;;;;-145.69;58.69;52186.94;5135083;27;20268;-82
2024/02/10 10:59:52;;;;;;;8.63;4.22;;;;;;;-145.69;58.82;52222.59;5135388;27;20211;-82
2024/02/10 11:02:19;;;;;;;9.13;6.85;;;;;;;-145.69;58.69;52242.38;5134875;27;20288;-82
2024/02/10 11:04:46;;;;;;;11.23;7.68;;;;;;;-145.69;59.04;52240.41;5134712;27;20215;-82
2024/02/10 11:07:13;;;;;;;12.07;6.15;;;;;;;-145.69;58.32;52234.47;5135112;27;20253;-84
2024/02/10 11:09:45;;;;;;;6.28;3.65;;;;;;;-145.69;57.85;52242.38;5135286;27;20592;-83
2024/02/10 11:12:11;;;;;;;9.00;3.70;;;;;;;-145.69;56.90;52216.66;5134824;27;20204;-81
2024/02/10 11:14:51;;;;;;;6.75;3.28;;;;;;;-145.69;55.21;52226.53;5134597;27;20192;-83
2024/02/10 11:17:17;;;;;;;6.25;3.05;;;;;;;-145.69;54.39;52214.66;5134625;27;20287;-83
2024/02/10 11:19:58;;;;;;;6.38;3.28;;;;;;;-145.69;53.11;52214.66;5134594;27;20200;-83